sensor_id;sensor_type;location;lat;lon;timestamp;temperature;humidity
44863;DHT22;30597;49.628;10.850;2022-11-30T00:01:21;19.80;59.30
44863;DHT22;30597;49.628;10.850;2022-11-30T00:03:47;19.80;59.40
44863;DHT22;30597;49.628;10.850;2022-11-30T00:06:15;19.80;59.70
44863;DHT22;30597;49.628;10.850;2022-11-30T00:08:41;19.80;59.40
44863;DHT22;30597;49.628;10.850;2022-11-30T00:13:34;19.70;59.60
44863;DHT22;30597;49.628;10.850;2022-11-30T00:16:00;19.70;59.60
44863;DHT22;30597;49.628;10.850;2022-11-30T00:18:25;19.70;59.50
44863;DHT22;30597;49.628;10.850;2022-11-30T00:20:51;19.70;59.50
44863;DHT22;30597;49.628;10.850;2022-11-30T00:23:16;19.70;59.50
44863;DHT22;30597;49.628;10.850;2022-11-30T00:25:42;19.70;59.50
44863;DHT22;30597;49.628;10.850;2022-11-30T00:28:07;19.70;59.50
44863;DHT22;30597;49.628;10.850;2022-11-30T00:30:33;19.70;59.40
44863;DHT22;30597;49.628;10.850;2022-11-30T00:32:58;19.70;59.40
44863;DHT22;30597;49.628;10.850;2022-11-30T00:35:24;19.70;59.40
44863;DHT22;30597;49.628;10.850;2022-11-30T00:37:49;19.70;59.40
44863;DHT22;30597;49.628;10.850;2022-11-30T00:40:15;19.70;59.50
44863;DHT22;30597;49.628;10.850;2022-11-30T00:42:41;19.60;59.60
44863;DHT22;30597;49.628;10.850;2022-11-30T00:45:06;19.60;59.60
44863;DHT22;30597;49.628;10.850;2022-11-30T00:47:32;19.60;59.60
44863;DHT22;30597;49.628;10.850;2022-11-30T00:49:58;19.60;59.70
44863;DHT22;30597;49.628;10.850;2022-11-30T00:52:23;19.60;59.70
44863;DHT22;30597;49.628;10.850;2022-11-30T00:54:49;19.60;59.80
44863;DHT22;30597;49.628;10.850;2022-11-30T00:57:14;19.50;59.80
44863;DHT22;30597;49.628;10.850;2022-11-30T00:59:40;19.50;59.90
44863;DHT22;30597;49.628;10.850;2022-11-30T01:02:05;19.50;59.90
44863;DHT22;30597;49.628;10.850;2022-11-30T01:04:31;19.50;59.90
44863;DHT22;30597;49.628;10.850;2022-11-30T01:06:56;19.50;59.90
44863;DHT22;30597;49.628;10.850;2022-11-30T01:09:22;19.40;59.80
44863;DHT22;30597;49.628;10.850;2022-11-30T01:11:47;19.40;60.30
44863;DHT22;30597;49.628;10.850;2022-11-30T01:14:13;19.40;60.60
44863;DHT22;30597;49.628;10.850;2022-11-30T01:16:39;19.40;60.80
44863;DHT22;30597;49.628;10.850;2022-11-30T01:19:04;19.40;60.90
44863;DHT22;30597;49.628;10.850;2022-11-30T01:21:30;19.40;61.00
44863;DHT22;30597;49.628;10.850;2022-11-30T01:23:56;19.40;61.20
44863;DHT22;30597;49.628;10.850;2022-11-30T01:26:22;19.40;61.00
44863;DHT22;30597;49.628;10.850;2022-11-30T01:28:52;19.40;60.80
44863;DHT22;30597;49.628;10.850;2022-11-30T01:31:18;19.40;60.60
44863;DHT22;30597;49.628;10.850;2022-11-30T01:33:51;19.40;60.60
44863;DHT22;30597;49.628;10.850;2022-11-30T01:36:20;19.40;60.60
44863;DHT22;30597;49.628;10.850;2022-11-30T01:38:49;19.40;60.60
44863;DHT22;30597;49.628;10.850;2022-11-30T01:41:19;19.40;60.60
44863;DHT22;30597;49.628;10.850;2022-11-30T01:43:54;19.40;60.60
44863;DHT22;30597;49.628;10.850;2022-11-30T01:51:55;19.40;60.60
44863;DHT22;30597;49.628;10.850;2022-11-30T01:54:25;19.30;60.70
44863;DHT22;30597;49.628;10.850;2022-11-30T01:56:56;19.30;60.80
44863;DHT22;30597;49.628;10.850;2022-11-30T01:59:24;19.30;60.80
44863;DHT22;30597;49.628;10.850;2022-11-30T02:01:51;19.20;60.70
44863;DHT22;30597;49.628;10.850;2022-11-30T02:04:28;19.30;60.90
44863;DHT22;30597;49.628;10.850;2022-11-30T02:06:57;19.20;60.80
44863;DHT22;30597;49.628;10.850;2022-11-30T02:09:23;19.20;60.80
44863;DHT22;30597;49.628;10.850;2022-11-30T02:11:50;19.20;60.90
44863;DHT22;30597;49.628;10.850;2022-11-30T02:19:55;19.20;60.90
44863;DHT22;30597;49.628;10.850;2022-11-30T02:31:07;19.10;61.30
44863;DHT22;30597;49.628;10.850;2022-11-30T02:33:34;19.10;61.70
44863;DHT22;30597;49.628;10.850;2022-11-30T02:36:03;19.10;61.80
44863;DHT22;30597;49.628;10.850;2022-11-30T02:38:30;19.00;61.80
44863;DHT22;30597;49.628;10.850;2022-11-30T02:40:56;19.00;61.90
44863;DHT22;30597;49.628;10.850;2022-11-30T02:43:25;19.00;61.80
44863;DHT22;30597;49.628;10.850;2022-11-30T02:45:58;19.00;61.90
44863;DHT22;30597;49.628;10.850;2022-11-30T02:51:17;19.00;62.00
44863;DHT22;30597;49.628;10.850;2022-11-30T02:53:44;19.00;61.90
44863;DHT22;30597;49.628;10.850;2022-11-30T02:56:10;19.00;61.90
44863;DHT22;30597;49.628;10.850;2022-11-30T02:58:35;18.90;61.70
44863;DHT22;30597;49.628;10.850;2022-11-30T03:01:01;18.90;61.70
44863;DHT22;30597;49.628;10.850;2022-11-30T03:03:26;19.00;61.80
44863;DHT22;30597;49.628;10.850;2022-11-30T03:05:52;19.00;61.70
44863;DHT22;30597;49.628;10.850;2022-11-30T03:08:17;19.00;61.70
44863;DHT22;30597;49.628;10.850;2022-11-30T03:10:43;19.00;61.60
44863;DHT22;30597;49.628;10.850;2022-11-30T03:13:08;19.00;61.60
44863;DHT22;30597;49.628;10.850;2022-11-30T03:15:34;19.00;61.60
44863;DHT22;30597;49.628;10.850;2022-11-30T03:18:01;19.00;61.50
44863;DHT22;30597;49.628;10.850;2022-11-30T03:20:27;19.00;61.60
44863;DHT22;30597;49.628;10.850;2022-11-30T03:22:53;19.00;61.60
44863;DHT22;30597;49.628;10.850;2022-11-30T03:25:19;19.00;61.60
44863;DHT22;30597;49.628;10.850;2022-11-30T03:27:45;18.90;61.50
44863;DHT22;30597;49.628;10.850;2022-11-30T03:30:10;18.90;61.60
44863;DHT22;30597;49.628;10.850;2022-11-30T03:32:36;18.90;61.60
44863;DHT22;30597;49.628;10.850;2022-11-30T03:35:02;18.90;61.60
44863;DHT22;30597;49.628;10.850;2022-11-30T03:37:27;18.90;61.70
44863;DHT22;30597;49.628;10.850;2022-11-30T03:39:53;18.90;61.70
44863;DHT22;30597;49.628;10.850;2022-11-30T03:42:18;18.90;61.60
44863;DHT22;30597;49.628;10.850;2022-11-30T03:44:44;18.90;61.70
44863;DHT22;30597;49.628;10.850;2022-11-30T03:47:09;18.90;61.70
44863;DHT22;30597;49.628;10.850;2022-11-30T03:49:35;18.80;61.70
44863;DHT22;30597;49.628;10.850;2022-11-30T03:52:01;18.80;61.70
44863;DHT22;30597;49.628;10.850;2022-11-30T03:54:26;18.80;61.70
44863;DHT22;30597;49.628;10.850;2022-11-30T03:56:52;18.80;61.70
44863;DHT22;30597;49.628;10.850;2022-11-30T03:59:17;18.80;61.90
44863;DHT22;30597;49.628;10.850;2022-11-30T04:01:43;18.70;61.70
44863;DHT22;30597;49.628;10.850;2022-11-30T04:04:10;18.70;61.80
44863;DHT22;30597;49.628;10.850;2022-11-30T04:06:35;18.70;62.30
44863;DHT22;30597;49.628;10.850;2022-11-30T04:09:01;18.70;62.90
44863;DHT22;30597;49.628;10.850;2022-11-30T04:11:27;18.80;63.00
44863;DHT22;30597;49.628;10.850;2022-11-30T04:13:52;18.80;63.00
44863;DHT22;30597;49.628;10.850;2022-11-30T04:16:18;18.80;63.00
44863;DHT22;30597;49.628;10.850;2022-11-30T04:18:43;18.90;62.90
44863;DHT22;30597;49.628;10.850;2022-11-30T04:21:09;19.00;62.80
44863;DHT22;30597;49.628;10.850;2022-11-30T04:23:37;19.00;62.70
44863;DHT22;30597;49.628;10.850;2022-11-30T04:26:04;19.10;62.60
44863;DHT22;30597;49.628;10.850;2022-11-30T04:28:30;19.20;62.60
44863;DHT22;30597;49.628;10.850;2022-11-30T04:30:56;19.20;62.30
44863;DHT22;30597;49.628;10.850;2022-11-30T04:33:21;19.30;62.40
44863;DHT22;30597;49.628;10.850;2022-11-30T04:35:50;19.30;62.20
44863;DHT22;30597;49.628;10.850;2022-11-30T04:38:16;19.40;62.20
44863;DHT22;30597;49.628;10.850;2022-11-30T04:40:42;19.40;62.10
44863;DHT22;30597;49.628;10.850;2022-11-30T04:43:09;19.50;62.10
44863;DHT22;30597;49.628;10.850;2022-11-30T04:45:34;19.50;61.90
44863;DHT22;30597;49.628;10.850;2022-11-30T04:48:00;19.60;62.00
44863;DHT22;30597;49.628;10.850;2022-11-30T04:50:26;19.50;61.60
44863;DHT22;30597;49.628;10.850;2022-11-30T04:52:52;19.60;61.70
44863;DHT22;30597;49.628;10.850;2022-11-30T04:55:17;19.60;61.70
44863;DHT22;30597;49.628;10.850;2022-11-30T04:57:46;19.60;61.80
44863;DHT22;30597;49.628;10.850;2022-11-30T05:00:14;19.50;61.70
44863;DHT22;30597;49.628;10.850;2022-11-30T05:02:40;19.50;61.80
44863;DHT22;30597;49.628;10.850;2022-11-30T05:05:06;19.40;61.90
44863;DHT22;30597;49.628;10.850;2022-11-30T05:07:32;19.40;62.00
44863;DHT22;30597;49.628;10.850;2022-11-30T05:09:58;19.40;62.20
44863;DHT22;30597;49.628;10.850;2022-11-30T05:12:23;19.40;62.50
44863;DHT22;30597;49.628;10.850;2022-11-30T05:14:49;19.30;62.40
44863;DHT22;30597;49.628;10.850;2022-11-30T05:17:14;19.30;62.40
44863;DHT22;30597;49.628;10.850;2022-11-30T05:19:40;19.30;62.50
44863;DHT22;30597;49.628;10.850;2022-11-30T05:22:06;19.20;62.60
44863;DHT22;30597;49.628;10.850;2022-11-30T05:24:31;19.20;62.70
44863;DHT22;30597;49.628;10.850;2022-11-30T05:26:57;19.10;62.80
44863;DHT22;30597;49.628;10.850;2022-11-30T05:29:22;19.10;63.00
44863;DHT22;30597;49.628;10.850;2022-11-30T05:31:48;19.00;63.00
44863;DHT22;30597;49.628;10.850;2022-11-30T05:34:14;19.00;63.20
44863;DHT22;30597;49.628;10.850;2022-11-30T05:36:39;18.90;63.30
44863;DHT22;30597;49.628;10.850;2022-11-30T05:39:05;18.90;63.50
44863;DHT22;30597;49.628;10.850;2022-11-30T05:41:30;18.90;63.50
44863;DHT22;30597;49.628;10.850;2022-11-30T05:43:56;18.90;63.60
44863;DHT22;30597;49.628;10.850;2022-11-30T05:46:22;18.80;63.60
44863;DHT22;30597;49.628;10.850;2022-11-30T05:48:48;18.80;63.80
44863;DHT22;30597;49.628;10.850;2022-11-30T05:51:18;18.80;63.80
44863;DHT22;30597;49.628;10.850;2022-11-30T05:53:44;18.80;63.80
44863;DHT22;30597;49.628;10.850;2022-11-30T05:56:13;18.80;63.50
44863;DHT22;30597;49.628;10.850;2022-11-30T05:58:39;18.80;63.50
44863;DHT22;30597;49.628;10.850;2022-11-30T06:01:06;18.80;63.70
44863;DHT22;30597;49.628;10.850;2022-11-30T06:03:33;18.80;63.80
44863;DHT22;30597;49.628;10.850;2022-11-30T06:05:59;18.80;63.90
44863;DHT22;30597;49.628;10.850;2022-11-30T06:08:25;18.80;63.90
44863;DHT22;30597;49.628;10.850;2022-11-30T06:10:51;18.80;63.90
44863;DHT22;30597;49.628;10.850;2022-11-30T06:13:17;18.80;64.00
44863;DHT22;30597;49.628;10.850;2022-11-30T06:15:43;18.80;64.00
44863;DHT22;30597;49.628;10.850;2022-11-30T06:18:11;18.80;63.80
44863;DHT22;30597;49.628;10.850;2022-11-30T06:20:37;18.70;63.90
44863;DHT22;30597;49.628;10.850;2022-11-30T06:23:02;18.70;63.90
44863;DHT22;30597;49.628;10.850;2022-11-30T06:25:28;18.70;63.90
44863;DHT22;30597;49.628;10.850;2022-11-30T06:27:54;18.70;64.10
44863;DHT22;30597;49.628;10.850;2022-11-30T06:30:19;18.60;63.90
44863;DHT22;30597;49.628;10.850;2022-11-30T06:32:50;18.60;63.90
44863;DHT22;30597;49.628;10.850;2022-11-30T06:35:16;18.60;64.10
44863;DHT22;30597;49.628;10.850;2022-11-30T06:37:42;18.70;63.90
44863;DHT22;30597;49.628;10.850;2022-11-30T06:40:09;18.80;63.50
44863;DHT22;30597;49.628;10.850;2022-11-30T06:42:36;18.90;63.40
44863;DHT22;30597;49.628;10.850;2022-11-30T06:45:02;19.00;63.20
44863;DHT22;30597;49.628;10.850;2022-11-30T06:47:28;19.20;63.00
44863;DHT22;30597;49.628;10.850;2022-11-30T06:49:54;19.20;62.70
44863;DHT22;30597;49.628;10.850;2022-11-30T06:52:19;19.30;62.50
44863;DHT22;30597;49.628;10.850;2022-11-30T06:54:45;19.40;62.20
44863;DHT22;30597;49.628;10.850;2022-11-30T06:57:11;19.40;61.90
44863;DHT22;30597;49.628;10.850;2022-11-30T06:59:36;19.50;61.80
44863;DHT22;30597;49.628;10.850;2022-11-30T07:02:11;19.50;61.70
44863;DHT22;30597;49.628;10.850;2022-11-30T07:04:37;19.50;61.50
44863;DHT22;30597;49.628;10.850;2022-11-30T07:07:03;19.60;61.60
44863;DHT22;30597;49.628;10.850;2022-11-30T07:09:29;19.60;61.40
44863;DHT22;30597;49.628;10.850;2022-11-30T07:11:56;19.60;61.10
44863;DHT22;30597;49.628;10.850;2022-11-30T07:14:22;19.70;61.00
44863;DHT22;30597;49.628;10.850;2022-11-30T07:16:47;19.70;60.80
44863;DHT22;30597;49.628;10.850;2022-11-30T07:19:13;19.80;60.70
44863;DHT22;30597;49.628;10.850;2022-11-30T07:21:38;19.80;60.50
44863;DHT22;30597;49.628;10.850;2022-11-30T07:24:04;19.90;60.50
44863;DHT22;30597;49.628;10.850;2022-11-30T07:26:48;19.90;60.30
44863;DHT22;30597;49.628;10.850;2022-11-30T07:29:14;19.90;60.60
44863;DHT22;30597;49.628;10.850;2022-11-30T07:31:39;20.00;60.70
44863;DHT22;30597;49.628;10.850;2022-11-30T07:34:07;20.00;60.50
44863;DHT22;30597;49.628;10.850;2022-11-30T07:36:34;20.00;60.30
44863;DHT22;30597;49.628;10.850;2022-11-30T07:39:00;20.10;60.30
44863;DHT22;30597;49.628;10.850;2022-11-30T07:41:26;20.10;60.20
44863;DHT22;30597;49.628;10.850;2022-11-30T07:43:51;20.10;60.00
44863;DHT22;30597;49.628;10.850;2022-11-30T07:46:18;20.10;60.10
44863;DHT22;30597;49.628;10.850;2022-11-30T07:48:44;20.20;60.20
44863;DHT22;30597;49.628;10.850;2022-11-30T07:51:16;20.20;60.10
44863;DHT22;30597;49.628;10.850;2022-11-30T07:53:42;20.20;60.00
44863;DHT22;30597;49.628;10.850;2022-11-30T07:56:10;20.20;59.90
44863;DHT22;30597;49.628;10.850;2022-11-30T07:58:36;20.20;59.80
44863;DHT22;30597;49.628;10.850;2022-11-30T08:01:04;20.30;59.90
44863;DHT22;30597;49.628;10.850;2022-11-30T08:03:31;20.30;59.80
44863;DHT22;30597;49.628;10.850;2022-11-30T08:06:24;20.30;59.70
44863;DHT22;30597;49.628;10.850;2022-11-30T08:08:51;20.30;59.70
44863;DHT22;30597;49.628;10.850;2022-11-30T08:11:20;20.30;59.70
44863;DHT22;30597;49.628;10.850;2022-11-30T08:13:46;20.30;59.70
44863;DHT22;30597;49.628;10.850;2022-11-30T08:16:14;20.40;59.60
44863;DHT22;30597;49.628;10.850;2022-11-30T08:18:41;20.40;59.60
44863;DHT22;30597;49.628;10.850;2022-11-30T08:21:08;20.40;59.50
44863;DHT22;30597;49.628;10.850;2022-11-30T08:23:36;20.40;59.40
44863;DHT22;30597;49.628;10.850;2022-11-30T08:28:39;20.40;59.40
44863;DHT22;30597;49.628;10.850;2022-11-30T08:31:08;20.50;59.50
44863;DHT22;30597;49.628;10.850;2022-11-30T08:33:35;20.50;59.50
44863;DHT22;30597;49.628;10.850;2022-11-30T08:36:08;20.50;59.50
44863;DHT22;30597;49.628;10.850;2022-11-30T08:38:35;20.50;59.40
44863;DHT22;30597;49.628;10.850;2022-11-30T08:41:01;20.60;59.40
44863;DHT22;30597;49.628;10.850;2022-11-30T08:43:27;20.60;59.30
44863;DHT22;30597;49.628;10.850;2022-11-30T08:45:53;20.60;59.20
44863;DHT22;30597;49.628;10.850;2022-11-30T08:48:19;20.60;59.10
44863;DHT22;30597;49.628;10.850;2022-11-30T08:50:44;20.70;59.20
44863;DHT22;30597;49.628;10.850;2022-11-30T08:53:10;20.70;59.00
44863;DHT22;30597;49.628;10.850;2022-11-30T08:55:35;20.70;59.10
44863;DHT22;30597;49.628;10.850;2022-11-30T08:58:01;20.70;59.10
44863;DHT22;30597;49.628;10.850;2022-11-30T09:00:26;20.70;59.00
44863;DHT22;30597;49.628;10.850;2022-11-30T09:02:52;20.70;59.00
44863;DHT22;30597;49.628;10.850;2022-11-30T09:05:18;20.70;58.90
44863;DHT22;30597;49.628;10.850;2022-11-30T09:07:43;20.70;59.00
44863;DHT22;30597;49.628;10.850;2022-11-30T09:10:09;20.70;59.00
44863;DHT22;30597;49.628;10.850;2022-11-30T09:12:36;20.70;59.00
44863;DHT22;30597;49.628;10.850;2022-11-30T09:15:03;20.70;59.10
44863;DHT22;30597;49.628;10.850;2022-11-30T09:17:28;20.70;59.20
44863;DHT22;30597;49.628;10.850;2022-11-30T09:19:54;20.70;59.20
44863;DHT22;30597;49.628;10.850;2022-11-30T09:22:20;20.70;59.30
44863;DHT22;30597;49.628;10.850;2022-11-30T09:24:48;20.80;59.30
44863;DHT22;30597;49.628;10.850;2022-11-30T09:27:14;20.80;59.40
44863;DHT22;30597;49.628;10.850;2022-11-30T09:29:39;20.80;59.30
44863;DHT22;30597;49.628;10.850;2022-11-30T09:32:05;20.80;59.30
44863;DHT22;30597;49.628;10.850;2022-11-30T09:34:31;20.80;59.40
44863;DHT22;30597;49.628;10.850;2022-11-30T09:36:56;20.80;59.40
44863;DHT22;30597;49.628;10.850;2022-11-30T09:39:22;20.90;59.40
44863;DHT22;30597;49.628;10.850;2022-11-30T09:44:53;20.90;59.10
44863;DHT22;30597;49.628;10.850;2022-11-30T09:47:43;20.90;59.00
44863;DHT22;30597;49.628;10.850;2022-11-30T09:50:18;20.80;59.00
44863;DHT22;30597;49.628;10.850;2022-11-30T09:52:52;20.90;59.10
44863;DHT22;30597;49.628;10.850;2022-11-30T09:55:38;20.90;59.20
44863;DHT22;30597;49.628;10.850;2022-11-30T09:58:06;20.90;59.10
44863;DHT22;30597;49.628;10.850;2022-11-30T10:00:38;20.90;59.20
44863;DHT22;30597;49.628;10.850;2022-11-30T10:03:04;21.00;59.20
44863;DHT22;30597;49.628;10.850;2022-11-30T10:05:46;21.00;58.60
44863;DHT22;30597;49.628;10.850;2022-11-30T10:17:13;21.00;58.50
44863;DHT22;30597;49.628;10.850;2022-11-30T10:27:50;21.10;58.80
44863;DHT22;30597;49.628;10.850;2022-11-30T10:30:24;21.10;58.90
44863;DHT22;30597;49.628;10.850;2022-11-30T10:32:53;21.10;58.90
44863;DHT22;30597;49.628;10.850;2022-11-30T10:37:55;21.10;58.80
44863;DHT22;30597;49.628;10.850;2022-11-30T10:40:38;21.20;58.80
44863;DHT22;30597;49.628;10.850;2022-11-30T10:45:50;21.20;58.10
44863;DHT22;30597;49.628;10.850;2022-11-30T10:50:58;21.10;56.80
44863;DHT22;30597;49.628;10.850;2022-11-30T10:53:24;21.10;56.70
44863;DHT22;30597;49.628;10.850;2022-11-30T10:56:05;21.20;56.80
44863;DHT22;30597;49.628;10.850;2022-11-30T10:58:37;21.20;56.70
44863;DHT22;30597;49.628;10.850;2022-11-30T11:01:32;21.20;56.70
44863;DHT22;30597;49.628;10.850;2022-11-30T11:04:19;21.20;56.70
44863;DHT22;30597;49.628;10.850;2022-11-30T11:06:57;21.10;56.60
44863;DHT22;30597;49.628;10.850;2022-11-30T11:12:02;21.20;57.00
44863;DHT22;30597;49.628;10.850;2022-11-30T11:14:29;21.10;57.00
44863;DHT22;30597;49.628;10.850;2022-11-30T11:17:03;21.10;57.10
44863;DHT22;30597;49.628;10.850;2022-11-30T11:19:40;21.20;57.30
44863;DHT22;30597;49.628;10.850;2022-11-30T11:22:24;21.20;57.30
44863;DHT22;30597;49.628;10.850;2022-11-30T11:24:52;21.20;57.30
44863;DHT22;30597;49.628;10.850;2022-11-30T11:27:32;21.20;57.30
44863;DHT22;30597;49.628;10.850;2022-11-30T11:30:16;21.30;57.40
44863;DHT22;30597;49.628;10.850;2022-11-30T11:35:40;21.30;57.70
44863;DHT22;30597;49.628;10.850;2022-11-30T11:38:39;21.40;57.90
44863;DHT22;30597;49.628;10.850;2022-11-30T11:41:31;21.30;57.90
44863;DHT22;30597;49.628;10.850;2022-11-30T11:46:50;21.30;58.20
44863;DHT22;30597;49.628;10.850;2022-11-30T11:49:25;21.30;58.30
44863;DHT22;30597;49.628;10.850;2022-11-30T11:52:20;21.30;58.20
44863;DHT22;30597;49.628;10.850;2022-11-30T11:54:53;21.30;57.70
44863;DHT22;30597;49.628;10.850;2022-11-30T11:57:44;21.20;57.60
44863;DHT22;30597;49.628;10.850;2022-11-30T12:00:14;21.20;56.70
44863;DHT22;30597;49.628;10.850;2022-11-30T12:05:45;21.00;56.60
44863;DHT22;30597;49.628;10.850;2022-11-30T12:10:57;20.90;56.70
44863;DHT22;30597;49.628;10.850;2022-11-30T12:13:31;20.80;57.50
44863;DHT22;30597;49.628;10.850;2022-11-30T12:33:09;20.70;56.90
44863;DHT22;30597;49.628;10.850;2022-11-30T12:36:28;20.80;56.80
44863;DHT22;30597;49.628;10.850;2022-11-30T12:50:04;21.00;56.40
44863;DHT22;30597;49.628;10.850;2022-11-30T12:55:38;21.00;56.20
44863;DHT22;30597;49.628;10.850;2022-11-30T13:06:19;20.90;53.40
44863;DHT22;30597;49.628;10.850;2022-11-30T13:11:33;21.00;53.70
44863;DHT22;30597;49.628;10.850;2022-11-30T13:13:59;21.00;53.80
44863;DHT22;30597;49.628;10.850;2022-11-30T13:16:25;21.00;53.90
44863;DHT22;30597;49.628;10.850;2022-11-30T13:18:58;21.10;54.00
44863;DHT22;30597;49.628;10.850;2022-11-30T13:21:31;21.10;54.00
44863;DHT22;30597;49.628;10.850;2022-11-30T13:24:28;21.10;54.20
44863;DHT22;30597;49.628;10.850;2022-11-30T13:27:25;21.10;54.40
44863;DHT22;30597;49.628;10.850;2022-11-30T13:30:14;21.20;54.80
44863;DHT22;30597;49.628;10.850;2022-11-30T13:32:41;21.20;55.00
44863;DHT22;30597;49.628;10.850;2022-11-30T13:38:20;21.30;55.30
44863;DHT22;30597;49.628;10.850;2022-11-30T13:41:03;21.30;55.50
44863;DHT22;30597;49.628;10.850;2022-11-30T13:43:33;21.30;55.50
44863;DHT22;30597;49.628;10.850;2022-11-30T13:46:14;21.30;55.50
44863;DHT22;30597;49.628;10.850;2022-11-30T13:48:43;21.30;55.60
44863;DHT22;30597;49.628;10.850;2022-11-30T13:51:10;21.30;55.80
44863;DHT22;30597;49.628;10.850;2022-11-30T13:53:37;21.40;56.00
44863;DHT22;30597;49.628;10.850;2022-11-30T13:56:32;21.40;56.10
44863;DHT22;30597;49.628;10.850;2022-11-30T14:01:47;21.40;56.30
44863;DHT22;30597;49.628;10.850;2022-11-30T14:04:25;21.40;56.30
44863;DHT22;30597;49.628;10.850;2022-11-30T14:06:54;21.30;57.00
44863;DHT22;30597;49.628;10.850;2022-11-30T14:15:03;21.30;56.70
44863;DHT22;30597;49.628;10.850;2022-11-30T14:17:47;21.30;56.90
44863;DHT22;30597;49.628;10.850;2022-11-30T14:20:16;21.20;57.10
44863;DHT22;30597;49.628;10.850;2022-11-30T14:22:47;21.20;57.30
44863;DHT22;30597;49.628;10.850;2022-11-30T14:25:14;21.20;57.40
44863;DHT22;30597;49.628;10.850;2022-11-30T14:27:41;21.10;57.50
44863;DHT22;30597;49.628;10.850;2022-11-30T14:30:16;21.10;57.50
44863;DHT22;30597;49.628;10.850;2022-11-30T14:32:45;21.00;57.70
44863;DHT22;30597;49.628;10.850;2022-11-30T14:35:15;21.00;58.10
44863;DHT22;30597;49.628;10.850;2022-11-30T14:37:54;20.90;58.20
44863;DHT22;30597;49.628;10.850;2022-11-30T14:40:24;20.80;58.10
44863;DHT22;30597;49.628;10.850;2022-11-30T14:42:56;20.80;58.60
44863;DHT22;30597;49.628;10.850;2022-11-30T14:47:51;20.80;58.60
44863;DHT22;30597;49.628;10.850;2022-11-30T14:50:24;20.90;58.70
44863;DHT22;30597;49.628;10.850;2022-11-30T14:58:31;21.10;58.30
44863;DHT22;30597;49.628;10.850;2022-11-30T15:00:58;21.20;58.20
44863;DHT22;30597;49.628;10.850;2022-11-30T15:03:30;21.20;58.30
44863;DHT22;30597;49.628;10.850;2022-11-30T15:05:59;21.20;58.10
44863;DHT22;30597;49.628;10.850;2022-11-30T15:08:31;21.30;58.10
44863;DHT22;30597;49.628;10.850;2022-11-30T15:11:06;21.30;58.00
44863;DHT22;30597;49.628;10.850;2022-11-30T15:13:36;21.40;57.90
44863;DHT22;30597;49.628;10.850;2022-11-30T15:16:10;21.40;57.90
44863;DHT22;30597;49.628;10.850;2022-11-30T15:18:40;21.40;57.80
44863;DHT22;30597;49.628;10.850;2022-11-30T15:21:12;21.40;57.70
44863;DHT22;30597;49.628;10.850;2022-11-30T15:23:42;21.40;57.10
44863;DHT22;30597;49.628;10.850;2022-11-30T15:26:23;21.30;54.20
44863;DHT22;30597;49.628;10.850;2022-11-30T15:28:58;21.30;54.20
44863;DHT22;30597;49.628;10.850;2022-11-30T15:31:31;21.30;54.20
44863;DHT22;30597;49.628;10.850;2022-11-30T15:33:58;21.30;54.20
44863;DHT22;30597;49.628;10.850;2022-11-30T15:36:24;21.30;54.30
44863;DHT22;30597;49.628;10.850;2022-11-30T15:38:51;21.30;54.40
44863;DHT22;30597;49.628;10.850;2022-11-30T15:41:21;21.40;54.50
44863;DHT22;30597;49.628;10.850;2022-11-30T15:43:53;21.30;54.50
44863;DHT22;30597;49.628;10.850;2022-11-30T15:46:34;21.30;54.60
44863;DHT22;30597;49.628;10.850;2022-11-30T15:51:41;21.30;54.70
44863;DHT22;30597;49.628;10.850;2022-11-30T15:54:06;21.30;54.80
44863;DHT22;30597;49.628;10.850;2022-11-30T15:56:32;21.30;54.80
44863;DHT22;30597;49.628;10.850;2022-11-30T15:59:24;21.20;54.80
44863;DHT22;30597;49.628;10.850;2022-11-30T16:01:54;21.10;54.90
44863;DHT22;30597;49.628;10.850;2022-11-30T16:07:56;21.00;55.10
44863;DHT22;30597;49.628;10.850;2022-11-30T16:10:32;20.90;55.30
44863;DHT22;30597;49.628;10.850;2022-11-30T16:12:59;20.80;55.40
44863;DHT22;30597;49.628;10.850;2022-11-30T16:15:29;20.80;55.50
44863;DHT22;30597;49.628;10.850;2022-11-30T16:17:59;20.80;55.60
44863;DHT22;30597;49.628;10.850;2022-11-30T16:20:25;20.70;55.60
44863;DHT22;30597;49.628;10.850;2022-11-30T16:22:51;20.60;55.70
44863;DHT22;30597;49.628;10.850;2022-11-30T16:25:19;20.60;55.70
44863;DHT22;30597;49.628;10.850;2022-11-30T16:27:45;20.50;55.80
44863;DHT22;30597;49.628;10.850;2022-11-30T16:30:17;20.50;55.90
44863;DHT22;30597;49.628;10.850;2022-11-30T16:32:43;20.50;55.90
44863;DHT22;30597;49.628;10.850;2022-11-30T16:35:24;20.40;56.00
44863;DHT22;30597;49.628;10.850;2022-11-30T16:37:50;20.50;55.90
44863;DHT22;30597;49.628;10.850;2022-11-30T16:40:17;20.60;55.90
44863;DHT22;30597;49.628;10.850;2022-11-30T16:42:43;20.70;55.80
44863;DHT22;30597;49.628;10.850;2022-11-30T16:45:20;20.80;55.70
44863;DHT22;30597;49.628;10.850;2022-11-30T16:47:47;20.80;55.50
44863;DHT22;30597;49.628;10.850;2022-11-30T16:50:13;20.90;55.50
44863;DHT22;30597;49.628;10.850;2022-11-30T16:52:39;20.90;55.40
44863;DHT22;30597;49.628;10.850;2022-11-30T16:55:19;21.00;55.30
44863;DHT22;30597;49.628;10.850;2022-11-30T16:57:46;21.00;55.30
44863;DHT22;30597;49.628;10.850;2022-11-30T17:00:14;21.00;55.20
44863;DHT22;30597;49.628;10.850;2022-11-30T17:02:55;21.00;55.10
44863;DHT22;30597;49.628;10.850;2022-11-30T17:05:22;21.10;55.80
44863;DHT22;30597;49.628;10.850;2022-11-30T17:07:48;21.10;55.10
44863;DHT22;30597;49.628;10.850;2022-11-30T17:10:15;21.10;55.00
44863;DHT22;30597;49.628;10.850;2022-11-30T17:12:40;21.10;55.00
44863;DHT22;30597;49.628;10.850;2022-11-30T17:15:08;21.10;55.00
44863;DHT22;30597;49.628;10.850;2022-11-30T17:17:35;21.10;55.10
44863;DHT22;30597;49.628;10.850;2022-11-30T17:20:01;21.20;55.10
44863;DHT22;30597;49.628;10.850;2022-11-30T17:22:26;21.20;55.10
44863;DHT22;30597;49.628;10.850;2022-11-30T17:24:52;21.20;55.00
44863;DHT22;30597;49.628;10.850;2022-11-30T17:27:17;21.20;55.00
44863;DHT22;30597;49.628;10.850;2022-11-30T17:29:43;21.20;55.00
44863;DHT22;30597;49.628;10.850;2022-11-30T17:32:08;21.20;55.10
44863;DHT22;30597;49.628;10.850;2022-11-30T17:34:34;21.20;55.10
44863;DHT22;30597;49.628;10.850;2022-11-30T17:36:59;21.10;55.00
44863;DHT22;30597;49.628;10.850;2022-11-30T17:39:25;21.10;55.00
44863;DHT22;30597;49.628;10.850;2022-11-30T17:41:51;21.20;55.10
44863;DHT22;30597;49.628;10.850;2022-11-30T17:44:16;21.10;55.10